Time;durP1;ratioP1;P1;durP2;ratioP2;P2;SDS_P1;SDS_P2;PMS_P1;PMS_P2;Temp;Humidity;BMP_temperature;BMP_pressure;BME280_temperature;BME280_humidity;BME280_pressure;Samples;Min_cycle;Max_cycle;Signal;HPM_P1;HPM_P2
2021/01/03 00:00:55;;;;;;;18.11;11.08;;;;;;;3.04;76.42;100243.41;358639;110;1960890;-73
2021/01/03 00:02:07;;;;;;;20.27;11.50;;;;;;;3.01;76.51;100238.36;353600;112;1961994;-74
2021/01/03 00:03:14;;;;;;;17.97;11.31;;;;;;;3.02;76.58;100234.72;347579;113;1960840;-74
2021/01/03 00:04:19;;;;;;;17.78;10.75;;;;;;;3.02;76.58;100240.06;347770;115;1961894;-74
2021/01/03 00:05:28;;;;;;;21.35;11.82;;;;;;;3.05;76.61;100240.61;354891;112;1961985;-74
2021/01/03 00:06:35;;;;;;;17.58;11.34;;;;;;;3.04;76.54;100244.27;359405;109;1961920;-74
2021/01/03 00:07:42;;;;;;;19.01;11.40;;;;;;;3.05;76.45;100250.45;359906;109;1963911;-75
2021/01/03 00:08:50;;;;;;;17.07;10.93;;;;;;;3.02;76.49;100240.90;348516;110;1962990;-75
2021/01/03 00:09:56;;;;;;;19.21;11.45;;;;;;;3.00;76.51;100247.36;353347;112;1961970;-73
2021/01/03 00:11:02;;;;;;;17.27;10.69;;;;;;;2.99;76.72;100248.33;317189;112;2623028;-74
2021/01/03 00:12:08;;;;;;;20.17;12.18;;;;;;;3.03;76.61;100241.73;339448;110;1961989;-74
2021/01/03 00:13:13;;;;;;;17.86;11.18;;;;;;;3.00;76.64;100242.86;358487;111;1961986;-74
2021/01/03 00:14:19;;;;;;;17.21;10.99;;;;;;;3.00;76.64;100242.02;360419;105;1962499;-73
2021/01/03 00:15:26;;;;;;;16.01;10.52;;;;;;;3.01;76.75;100249.03;324653;108;2737029;-74
2021/01/03 00:16:34;;;;;;;16.80;11.19;;;;;;;2.98;76.91;100254.66;366018;108;1962033;-74
2021/01/03 00:17:41;;;;;;;20.37;11.35;;;;;;;3.01;76.85;100251.70;367651;107;1960666;-74
2021/01/03 00:18:47;;;;;;;20.53;11.66;;;;;;;3.00;76.85;100244.70;350292;108;1961896;-73
2021/01/03 00:19:52;;;;;;;21.14;12.85;;;;;;;3.02;76.77;100254.25;364989;109;1962009;-73
2021/01/03 00:20:58;;;;;;;24.34;13.61;;;;;;;3.05;76.62;100250.45;373441;106;1963990;-73
2021/01/03 00:22:03;;;;;;;19.03;10.93;;;;;;;3.04;76.47;100252.28;371486;107;1962046;-74
2021/01/03 00:23:09;;;;;;;17.08;10.79;;;;;;;3.02;76.59;100256.08;374120;106;1962999;-74
2021/01/03 00:24:15;;;;;;;19.52;11.62;;;;;;;3.01;76.50;100252.54;333554;106;2668007;-73
2021/01/03 00:25:23;;;;;;;19.51;10.99;;;;;;;3.01;76.61;100257.05;357481;106;1965002;-74
2021/01/03 00:26:30;;;;;;;18.37;11.12;;;;;;;2.99;76.60;100253.66;328147;106;2056565;-74
2021/01/03 00:27:36;;;;;;;16.27;10.12;;;;;;;3.01;76.72;100257.05;345169;107;1961978;-74
2021/01/03 00:28:42;;;;;;;19.17;12.78;;;;;;;3.02;76.69;100256.08;363632;109;1962972;-74
2021/01/03 00:29:49;;;;;;;19.02;11.59;;;;;;;3.04;76.66;100251.41;372566;107;1964972;-73
2021/01/03 00:30:54;;;;;;;17.27;11.12;;;;;;;3.04;76.63;100252.28;336068;108;2498880;-74
2021/01/03 00:32:01;;;;;;;21.52;12.35;;;;;;;3.02;76.74;100256.91;338769;107;1961873;-73
2021/01/03 00:33:06;;;;;;;17.73;10.98;;;;;;;3.02;76.59;100251.58;372734;107;1963019;-73
2021/01/03 00:34:17;;;;;;;18.58;11.03;;;;;;;3.00;76.65;100252.70;372372;106;1962003;-73
2021/01/03 00:35:26;;;;;;;16.83;11.08;;;;;;;3.00;76.71;100248.20;360229;110;1965031;-73
2021/01/03 00:36:34;;;;;;;20.16;11.34;;;;;;;3.00;76.69;100242.86;333295;113;2278938;-74
2021/01/03 00:37:39;;;;;;;19.54;11.59;;;;;;;3.01;76.77;100249.88;325480;112;1961960;-73
2021/01/03 00:38:45;;;;;;;19.47;10.13;;;;;;;3.00;76.69;100250.03;360961;111;1962041;-73
2021/01/03 00:39:51;;;;;;;16.68;10.78;;;;;;;2.99;76.76;100253.66;356470;111;1961993;-72
2021/01/03 00:40:57;;;;;;;17.99;10.50;;;;;;;3.00;76.89;100253.53;361321;110;1961982;-74
2021/01/03 00:42:03;;;;;;;17.49;10.59;;;;;;;3.01;76.78;100241.86;321198;110;2720942;-74
2021/01/03 00:43:12;;;;;;;18.06;10.19;;;;;;;3.02;76.77;100248.07;360909;111;1961987;-73
2021/01/03 00:44:18;;;;;;;18.02;11.21;;;;;;;2.97;76.75;100242.31;346224;111;2248928;-73
2021/01/03 00:45:24;;;;;;;17.84;10.94;;;;;;;2.95;76.85;100244.28;364207;110;1962944;-73
2021/01/03 00:46:29;;;;;;;16.97;9.57;;;;;;;2.95;77.15;100238.94;362103;111;1962004;-72
2021/01/03 00:47:35;;;;;;;20.47;11.16;;;;;;;2.94;77.13;100238.11;362452;109;1963970;-74
2021/01/03 00:48:42;;;;;;;16.94;10.75;;;;;;;2.94;77.19;100246.11;313121;110;2855920;-73
2021/01/03 00:49:47;;;;;;;17.69;11.16;;;;;;;2.95;77.28;100230.94;337917;111;1962001;-73
2021/01/03 00:50:54;;;;;;;20.17;12.11;;;;;;;2.93;77.21;100240.91;364073;110;1962040;-72
2021/01/03 00:52:01;;;;;;;20.24;12.56;;;;;;;2.93;77.36;100241.73;362743;109;1962048;-74
2021/01/03 00:53:09;;;;;;;20.78;12.39;;;;;;;2.93;77.25;100232.90;314931;111;2794060;-73
2021/01/03 00:54:14;;;;;;;26.01;14.96;;;;;;;2.93;77.31;100232.90;350871;113;1963013;-72
2021/01/03 00:55:20;;;;;;;19.91;12.34;;;;;;;2.92;77.36;100234.73;358528;111;1962020;-73
2021/01/03 00:56:26;;;;;;;20.21;12.24;;;;;;;2.93;77.47;100238.23;311826;111;2846993;-73
2021/01/03 00:57:31;;;;;;;21.33;14.14;;;;;;;2.94;77.43;100239.91;343466;110;1961896;-73
2021/01/03 00:58:37;;;;;;;19.10;12.41;;;;;;;2.92;77.33;100236.56;359585;111;1961970;-73
2021/01/03 00:59:42;;;;;;;20.07;12.85;;;;;;;2.92;77.37;100241.90;359569;111;1963923;-73
2021/01/03 01:00:47;;;;;;;21.48;12.06;;;;;;;2.93;77.40;100238.23;366379;109;1960979;-73
2021/01/03 01:01:53;;;;;;;20.06;12.42;;;;;;;2.93;77.58;100239.07;367753;110;1962019;-73
2021/01/03 01:02:59;;;;;;;19.46;12.24;;;;;;;2.93;77.46;100232.90;365053;110;1961988;-73
2021/01/03 01:04:05;;;;;;;18.94;11.20;;;;;;;2.93;77.50;100235.56;320974;111;2742026;-74
2021/01/03 01:05:12;;;;;;;19.52;11.50;;;;;;;2.91;77.42;100237.53;348840;110;1962009;-73
2021/01/03 01:06:20;;;;;;;18.04;11.23;;;;;;;2.89;77.46;100237.69;320886;110;2746027;-74
2021/01/03 01:07:25;;;;;;;20.01;11.64;;;;;;;2.89;77.46;100239.52;341051;110;1964939;-73
2021/01/03 01:08:31;;;;;;;17.84;11.78;;;;;;;2.88;77.46;100235.15;365204;110;1962955;-74
2021/01/03 01:09:36;;;;;;;18.36;11.61;;;;;;;2.90;77.44;100239.36;364451;110;1962032;-73
2021/01/03 01:10:43;;;;;;;18.77;12.43;;;;;;;2.90;77.49;100246.53;362620;110;1961060;-73
2021/01/03 01:11:52;;;;;;;19.41;12.29;;;;;;;2.88;77.49;100240.48;301400;111;2222900;-73
2021/01/03 01:13:01;;;;;;;18.84;12.84;;;;;;;2.87;77.53;100239.66;363222;111;1960920;-73
2021/01/03 01:14:07;;;;;;;21.71;12.57;;;;;;;2.90;77.51;100241.19;361699;111;1960859;-73
2021/01/03 01:15:20;;;;;;;20.68;12.30;;;;;;;2.90;77.51;100243.86;362962;111;1960843;-73
2021/01/03 01:16:26;;;;;;;20.25;12.06;;;;;;;2.89;77.51;100232.35;365727;110;1963027;-73
2021/01/03 01:17:31;;;;;;;17.95;11.63;;;;;;;2.87;77.52;100234.31;363269;111;1960930;-72
2021/01/03 01:18:37;;;;;;;18.47;12.07;;;;;;;2.85;77.64;100233.61;363308;111;1961078;-73
2021/01/03 01:19:43;;;;;;;19.80;11.12;;;;;;;2.84;77.54;100232.77;319119;110;2774000;-73
2021/01/03 01:20:50;;;;;;;23.50;12.25;;;;;;;2.87;77.55;100234.31;364392;109;1961859;-73
2021/01/03 01:21:55;;;;;;;19.59;12.29;;;;;;;2.86;77.49;100236.15;363772;110;1961997;-73
2021/01/03 01:23:02;;;;;;;18.92;10.93;;;;;;;2.86;77.50;100236.15;364485;110;1963034;-73
2021/01/03 01:24:08;;;;;;;20.16;11.58;;;;;;;2.84;77.38;100226.59;320089;110;2060748;-73
2021/01/03 01:25:16;;;;;;;19.34;11.60;;;;;;;2.82;77.44;100233.89;355753;109;1962983;-73
2021/01/03 01:26:23;;;;;;;17.54;10.61;;;;;;;2.82;77.48;100228.56;329564;110;2555916;-74
2021/01/03 01:27:28;;;;;;;24.22;12.06;;;;;;;2.81;77.58;100229.55;364790;110;1964004;-73
2021/01/03 01:28:34;;;;;;;18.67;11.76;;;;;;;2.81;77.56;100226.89;364351;110;1962089;-74
2021/01/03 01:29:39;;;;;;;18.10;10.55;;;;;;;2.81;77.58;100225.05;364154;111;1961890;-73
2021/01/03 01:30:46;;;;;;;17.96;11.51;;;;;;;2.80;77.64;100223.35;356159;113;1962059;-73
2021/01/03 01:31:52;;;;;;;18.40;11.17;;;;;;;2.80;77.60;100227.85;316156;110;2840961;-74
2021/01/03 01:32:59;;;;;;;18.69;11.12;;;;;;;2.78;77.63;100230.68;332531;110;1962003;-73
2021/01/03 01:34:05;;;;;;;19.21;11.33;;;;;;;2.80;77.71;100226.02;363402;110;1961995;-74
2021/01/03 01:35:13;;;;;;;16.49;10.32;;;;;;;2.79;77.65;100227.02;362905;109;1962909;-73
2021/01/03 01:36:20;;;;;;;21.05;11.40;;;;;;;2.79;77.61;100227.02;364629;109;1961993;-73
2021/01/03 01:37:26;;;;;;;18.76;11.10;;;;;;;2.77;77.62;100231.64;362856;109;1962009;-73
2021/01/03 01:38:32;;;;;;;17.38;11.39;;;;;;;2.80;77.66;100228.69;343780;109;1961935;-73
2021/01/03 01:39:37;;;;;;;16.43;10.94;;;;;;;2.80;77.67;100228.69;363113;111;1961958;-72
2021/01/03 01:40:45;;;;;;;18.91;12.52;;;;;;;2.79;77.61;100223.52;363364;109;1961975;-73
2021/01/03 01:41:51;;;;;;;19.22;11.39;;;;;;;2.79;77.61;100229.69;314652;111;2812969;-73
2021/01/03 01:42:56;;;;;;;22.08;11.73;;;;;;;2.78;77.60;100225.34;331418;111;1965044;-73
2021/01/03 01:44:03;;;;;;;17.69;11.58;;;;;;;2.79;77.55;100229.69;361334;110;1961922;-73
2021/01/03 01:45:12;;;;;;;17.25;10.60;;;;;;;2.78;77.61;100217.34;362279;110;1961957;-73
2021/01/03 01:46:23;;;;;;;17.20;11.38;;;;;;;2.77;77.47;100222.80;361707;111;1961965;-73
2021/01/03 01:47:33;;;;;;;19.91;11.42;;;;;;;2.76;77.57;100224.64;355152;112;1961982;-73
2021/01/03 01:48:46;;;;;;;16.63;10.64;;;;;;;2.76;77.52;100232.64;362829;109;1962000;-73
2021/01/03 01:49:52;;;;;;;18.80;11.64;;;;;;;2.75;77.52;100227.44;362941;109;1962002;-72
2021/01/03 01:51:05;;;;;;;18.03;11.58;;;;;;;2.75;77.57;100230.97;361018;110;1964023;-73
2021/01/03 01:52:13;;;;;;;18.86;11.11;;;;;;;2.76;77.55;100229.97;331762;110;1962003;-73
2021/01/03 01:53:22;;;;;;;16.62;10.59;;;;;;;2.76;77.48;100232.64;362395;111;1964009;-73
2021/01/03 01:54:33;;;;;;;18.43;11.11;;;;;;;2.74;77.43;100226.59;353391;110;1962073;-74
2021/01/03 01:55:43;;;;;;;21.33;11.22;;;;;;;2.74;77.46;100233.77;314842;109;2831930;-73
2021/01/03 01:56:59;;;;;;;19.73;11.03;;;;;;;2.75;77.48;100233.64;300558;111;2223159;-73
2021/01/03 01:58:11;;;;;;;17.53;10.73;;;;;;;2.75;77.38;100227.44;365788;110;1961877;-73
2021/01/03 01:59:31;;;;;;;17.85;10.77;;;;;;;2.72;77.45;100233.89;365766;110;1961991;-73
2021/01/03 02:00:42;;;;;;;18.21;11.00;;;;;;;2.72;77.39;100239.23;305385;110;2187713;-73
2021/01/03 02:02:16;;;;;;;18.46;11.81;;;;;;;2.73;77.41;100240.94;314924;110;2856985;-73
2021/01/03 02:03:32;;;;;;;17.98;10.23;;;;;;;2.72;77.35;100233.89;355073;109;1961043;-73
2021/01/03 02:04:42;;;;;;;19.67;10.82;;;;;;;2.70;77.46;100237.69;316706;109;2865001;-73
2021/01/03 02:06:14;;;;;;;17.47;10.61;;;;;;;2.70;77.49;100235.89;368325;109;1960944;-73
2021/01/03 02:07:39;;;;;;;22.16;10.98;;;;;;;2.71;77.49;100234.89;364021;109;1961978;-73
2021/01/03 02:08:48;;;;;;;19.32;12.15;;;;;;;2.72;77.38;100239.23;362379;109;1961922;-73
2021/01/03 02:10:17;;;;;;;17.78;10.63;;;;;;;2.73;77.44;100237.43;363175;111;1961971;-73
2021/01/03 02:11:27;;;;;;;18.56;10.58;;;;;;;2.73;77.50;100240.94;360058;110;1964968;-73
2021/01/03 02:12:36;;;;;;;17.48;10.65;;;;;;;2.74;77.53;100250.61;304863;112;2168951;-72
2021/01/03 02:13:48;;;;;;;16.91;10.27;;;;;;;2.78;77.44;100253.82;309944;111;2137701;-73
2021/01/03 02:14:54;;;;;;;20.06;11.66;;;;;;;2.80;77.38;100246.53;364643;109;1964002;-73
2021/01/03 02:16:12;;;;;;;17.62;11.15;;;;;;;2.78;77.52;100252.02;362945;109;1961990;-73
2021/01/03 02:17:17;;;;;;;18.82;10.74;;;;;;;2.80;77.81;100249.20;362634;109;1962029;-73
2021/01/03 02:18:23;;;;;;;17.78;10.73;;;;;;;2.90;77.68;100249.20;362438;109;1962052;-73
2021/01/03 02:19:33;;;;;;;16.21;10.12;;;;;;;2.97;77.54;100250.32;362634;109;1961951;-73
2021/01/03 02:20:51;;;;;;;17.40;10.67;;;;;;;3.07;77.36;100254.66;364004;109;1961927;-73
2021/01/03 02:22:00;;;;;;;17.73;10.57;;;;;;;3.18;76.91;100244.81;333622;109;1962082;-72
2021/01/03 02:23:08;;;;;;;17.17;11.03;;;;;;;3.21;76.89;100248.02;316645;111;2767052;-73
2021/01/03 02:24:20;;;;;;;17.12;10.29;;;;;;;3.31;76.57;100245.34;365219;111;1962005;-74
2021/01/03 02:25:25;;;;;;;17.31;10.51;;;;;;;3.41;76.20;100237.27;307306;110;2172755;-73
2021/01/03 02:26:38;;;;;;;19.99;12.36;;;;;;;3.45;75.85;100242.19;362123;111;1961962;-73
2021/01/03 02:27:53;;;;;;;;;;;;;;;3.56;75.54;100245.67;369807;110;1960929;-73
2021/01/03 02:29:00;;;;;;;18.03;11.54;;;;;;;3.54;75.53;100245.80;363539;110;1960941;-72
2021/01/03 02:30:08;;;;;;;18.44;10.32;;;;;;;3.61;75.42;100241.56;323782;109;2000051;-73
2021/01/03 02:31:17;;;;;;;18.24;9.95;;;;;;;3.62;74.81;100242.40;306860;112;2867014;-73
2021/01/03 02:32:25;;;;;;;18.59;10.41;;;;;;;3.73;74.74;100243.07;359528;111;1962041;-73
2021/01/03 02:33:43;;;;;;;16.21;10.32;;;;;;;3.73;74.53;100239.53;361117;111;1961963;-73
2021/01/03 02:34:50;;;;;;;18.82;10.53;;;;;;;3.79;74.36;100238.13;336059;112;2293916;-73
2021/01/03 02:35:59;;;;;;;18.46;11.42;;;;;;;3.78;74.12;100236.42;361814;110;1961962;-73
2021/01/03 02:37:17;;;;;;;18.78;11.47;;;;;;;3.77;74.14;100248.95;355312;111;1961990;-73
2021/01/03 02:38:27;;;;;;;19.86;11.24;;;;;;;3.77;74.14;100232.92;362324;111;1961969;-73
2021/01/03 02:39:48;;;;;;;19.55;11.57;;;;;;;3.76;74.32;100233.92;361515;111;1961957;-74
2021/01/03 02:40:54;;;;;;;20.91;11.39;;;;;;;3.74;74.30;100226.03;335026;110;1961998;-73
2021/01/03 02:42:03;;;;;;;18.57;10.34;;;;;;;3.80;74.03;100237.96;361984;110;1962048;-73
2021/01/03 02:43:08;;;;;;;16.26;9.94;;;;;;;3.80;73.73;100242.47;325700;112;1961992;-73
2021/01/03 02:44:14;;;;;;;18.56;10.74;;;;;;;3.77;73.87;100232.92;368421;109;1961942;-73
2021/01/03 02:45:23;;;;;;;22.01;11.92;;;;;;;3.76;73.71;100233.92;365700;109;1962017;-73
2021/01/03 02:46:30;;;;;;;18.53;10.88;;;;;;;3.72;73.71;100233.35;363185;110;1962006;-74
2021/01/03 02:47:38;;;;;;;19.49;11.11;;;;;;;3.70;73.83;100232.66;363410;110;1962039;-73
2021/01/03 02:48:43;;;;;;;20.99;11.06;;;;;;;3.71;73.88;100225.50;358669;111;1962967;-73
2021/01/03 02:49:48;;;;;;;19.41;10.71;;;;;;;3.70;73.68;100243.34;356470;105;1959761;-71
2021/01/03 02:50:54;;;;;;;21.27;10.69;;;;;;;3.67;73.67;100242.80;368830;108;1962026;-73
2021/01/03 02:52:01;;;;;;;17.94;10.68;;;;;;;3.65;73.72;100234.95;365773;109;1961966;-72
2021/01/03 02:53:08;;;;;;;19.53;10.52;;;;;;;3.66;73.62;100235.79;346492;107;2320944;-73
2021/01/03 02:54:14;;;;;;;19.31;11.21;;;;;;;3.65;73.61;100245.64;373257;108;1963988;-73
2021/01/03 02:55:20;;;;;;;21.90;11.69;;;;;;;3.61;73.67;100235.39;372575;108;1962964;-73
2021/01/03 02:56:26;;;;;;;21.13;11.54;;;;;;;3.58;73.86;100238.36;353935;108;2324974;-73
2021/01/03 02:57:32;;;;;;;20.68;10.90;;;;;;;3.57;73.81;100244.67;356027;108;1962065;-74
2021/01/03 02:58:37;;;;;;;19.98;11.04;;;;;;;3.60;73.78;100239.03;372434;108;1963724;-73
2021/01/03 02:59:42;;;;;;;22.85;11.84;;;;;;;3.61;73.54;100246.08;372416;108;1961942;-73
2021/01/03 03:00:48;;;;;;;20.05;10.17;;;;;;;3.55;73.68;100242.16;373632;108;1961975;-74
2021/01/03 03:01:53;;;;;;;22.00;11.24;;;;;;;3.57;73.49;100245.50;372542;108;1962092;-74
2021/01/03 03:03:00;;;;;;;20.17;10.67;;;;;;;3.53;73.52;100236.95;374803;107;1961960;-73
2021/01/03 03:04:05;;;;;;;20.13;10.84;;;;;;;3.49;73.65;100237.38;320725;107;2138605;-74
2021/01/03 03:05:11;;;;;;;18.39;10.91;;;;;;;3.51;73.49;100246.09;352826;108;1965033;-74
2021/01/03 03:06:17;;;;;;;20.88;10.82;;;;;;;3.49;73.48;100240.92;373459;108;1962021;-73
2021/01/03 03:07:22;;;;;;;26.69;11.58;;;;;;;3.45;73.64;100246.70;373152;108;1962986;-73
2021/01/03 03:08:29;;;;;;;24.47;11.27;;;;;;;3.36;73.96;100247.55;367379;109;1963048;-72
2021/01/03 03:09:35;;;;;;;25.87;11.17;;;;;;;3.33;74.02;100254.02;335386;109;2457082;-73
2021/01/03 03:10:41;;;;;;;26.38;12.23;;;;;;;3.36;73.94;100240.41;372887;107;1961953;-73
2021/01/03 03:11:47;;;;;;;33.22;12.61;;;;;;;3.33;74.01;100243.34;362742;110;1961919;-73
2021/01/03 03:12:56;;;;;;;24.03;11.83;;;;;;;3.33;74.20;100250.52;374136;108;1961986;-73
2021/01/03 03:14:02;;;;;;;26.63;11.83;;;;;;;3.35;74.07;100251.22;376073;108;1961980;-73
2021/01/03 03:15:10;;;;;;;26.38;12.58;;;;;;;3.28;74.26;100246.47;376144;108;1961961;-72
2021/01/03 03:16:17;;;;;;;26.46;12.40;;;;;;;3.30;74.25;100247.14;376026;108;1961959;-73
2021/01/03 03:17:23;;;;;;;29.44;13.87;;;;;;;3.32;74.15;100246.17;374655;108;1961980;-73
2021/01/03 03:18:29;;;;;;;25.51;13.06;;;;;;;3.30;74.22;100241.80;337665;107;2604910;-73
2021/01/03 03:19:35;;;;;;;27.19;13.47;;;;;;;3.31;74.14;100250.67;340290;108;1962044;-74
2021/01/03 03:20:42;;;;;;;23.96;11.90;;;;;;;3.31;74.13;100248.01;373844;107;1962028;-73
2021/01/03 03:21:53;;;;;;;25.33;13.47;;;;;;;3.32;74.12;100247.01;347556;107;2418918;-72
2021/01/03 03:22:58;;;;;;;23.84;12.31;;;;;;;3.33;74.17;100248.67;316504;108;2159288;-73
2021/01/03 03:24:04;;;;;;;24.64;12.04;;;;;;;3.33;74.22;100251.35;343006;108;1962075;-72
2021/01/03 03:25:10;;;;;;;30.44;12.69;;;;;;;3.29;74.18;100240.13;374189;108;1961946;-73
2021/01/03 03:26:16;;;;;;;22.90;12.82;;;;;;;3.36;74.10;100250.22;372933;108;1961933;-73
2021/01/03 03:27:22;;;;;;;24.74;13.99;;;;;;;3.34;74.10;100245.04;330352;110;2499008;-72
2021/01/03 03:28:28;;;;;;;25.51;11.74;;;;;;;3.37;74.07;100242.08;359146;108;1961965;-73
2021/01/03 03:29:36;;;;;;;24.90;12.52;;;;;;;3.39;73.99;100247.28;374862;107;1962016;-73
2021/01/03 03:30:42;;;;;;;25.19;12.56;;;;;;;3.38;73.99;100235.73;336339;107;2622974;-73
2021/01/03 03:31:49;;;;;;;25.48;11.94;;;;;;;3.39;73.92;100239.27;373099;107;1961976;-73
2021/01/03 03:32:54;;;;;;;25.94;10.98;;;;;;;3.37;73.78;100252.76;372240;108;1962055;-73
2021/01/03 03:34:00;;;;;;;20.71;10.98;;;;;;;3.34;73.85;100234.36;373207;108;1961907;-73
2021/01/03 03:35:08;;;;;;;21.56;12.38;;;;;;;3.37;73.78;100238.57;372116;108;1963956;-75
2021/01/03 03:36:15;;;;;;;27.44;12.18;;;;;;;3.35;73.80;100248.55;373209;108;1962069;-73
2021/01/03 03:37:21;;;;;;;20.20;11.35;;;;;;;3.37;73.74;100243.91;334456;108;2619014;-73
2021/01/03 03:38:26;;;;;;;21.61;11.49;;;;;;;3.35;73.81;100246.72;345064;108;1961972;-73
2021/01/03 03:39:32;;;;;;;22.86;11.39;;;;;;;3.37;73.70;100233.23;368565;108;1962050;-73
2021/01/03 03:40:39;;;;;;;26.53;12.93;;;;;;;3.37;73.59;100242.08;372199;108;1961952;-73
2021/01/03 03:41:44;;;;;;;27.57;12.15;;;;;;;3.35;73.56;100249.38;374672;104;1961194;-72
2021/01/03 03:42:51;;;;;;;24.44;12.18;;;;;;;3.33;73.80;100242.50;326242;105;2847929;-73
2021/01/03 03:43:56;;;;;;;26.40;11.17;;;;;;;3.33;73.83;100243.34;369084;105;1961913;-72
2021/01/03 03:45:04;;;;;;;29.22;12.11;;;;;;;3.29;74.01;100244.63;367880;107;1962043;-73
2021/01/03 03:46:10;;;;;;;21.83;10.66;;;;;;;3.32;73.88;100251.52;334967;110;2477933;-73
2021/01/03 03:47:15;;;;;;;28.47;11.17;;;;;;;3.32;74.05;100251.52;341656;107;1963927;-73
2021/01/03 03:48:21;;;;;;;26.09;10.28;;;;;;;3.33;73.79;100247.84;366078;107;1961998;-72
2021/01/03 03:49:26;;;;;;;22.38;10.64;;;;;;;3.32;73.78;100247.01;369480;107;1962012;-73
2021/01/03 03:50:33;;;;;;;25.71;12.12;;;;;;;3.33;73.75;100255.85;370336;107;1961998;-73
2021/01/03 03:51:40;;;;;;;24.66;11.31;;;;;;;3.29;73.75;100250.81;324493;107;2777932;-73
2021/01/03 03:52:46;;;;;;;21.64;10.97;;;;;;;3.27;73.92;100247.43;369494;107;1962003;-73
2021/01/03 03:53:51;;;;;;;19.86;10.05;;;;;;;3.33;73.72;100253.19;369938;107;1961961;-73
2021/01/03 03:54:56;;;;;;;22.43;9.73;;;;;;;3.30;73.77;100243.63;367781;107;1961910;-73
2021/01/03 03:56:02;;;;;;;23.46;10.76;;;;;;;3.29;73.65;100250.81;368689;107;1962996;-72
2021/01/03 03:57:07;;;;;;;18.80;9.94;;;;;;;3.30;73.73;100249.81;367914;107;1961929;-72
2021/01/03 03:58:13;;;;;;;25.79;11.16;;;;;;;3.31;73.67;100242.67;328251;109;2611933;-72
2021/01/03 03:59:19;;;;;;;21.25;11.24;;;;;;;3.24;73.88;100252.23;330487;109;1962978;-72
2021/01/03 04:00:27;;;;;;;23.58;10.82;;;;;;;3.26;74.00;100245.77;369208;108;1961911;-73
2021/01/03 04:01:38;;;;;;;21.22;9.81;;;;;;;3.30;73.91;100254.31;319038;107;2854930;-73
2021/01/03 04:02:44;;;;;;;23.92;11.14;;;;;;;3.29;73.77;100258.81;322496;107;2074325;-72
2021/01/03 04:03:49;;;;;;;25.58;11.04;;;;;;;3.29;73.98;100249.97;369223;107;1960923;-72
2021/01/03 04:04:54;;;;;;;24.07;10.01;;;;;;;3.28;73.90;100254.48;370191;107;1960843;-73
2021/01/03 04:06:01;;;;;;;19.79;10.37;;;;;;;3.29;74.00;100252.64;370427;107;1961916;-73
2021/01/03 04:07:06;;;;;;;21.52;10.33;;;;;;;3.28;73.99;100257.15;369685;107;1963982;-73
2021/01/03 04:08:14;;;;;;;15.96;9.22;;;;;;;3.26;74.11;100253.77;328835;107;2668782;-74
2021/01/03 04:09:20;;;;;;;17.34;8.71;;;;;;;3.34;73.77;100254.89;369782;107;1960787;-73
2021/01/03 04:10:29;;;;;;;16.97;9.98;;;;;;;3.34;73.50;100261.06;329495;107;2679874;-73
2021/01/03 04:11:41;;;;;;;17.46;9.86;;;;;;;3.33;73.49;100261.20;370003;107;1960715;-73
2021/01/03 04:12:47;;;;;;;;;;;;;;;3.31;73.55;100266.70;327045;107;2060003;-72
2021/01/03 04:13:52;;;;;;;18.20;10.02;;;;;;;3.28;73.73;100262.48;335449;107;1959930;-72
2021/01/03 04:14:57;;;;;;;20.97;10.97;;;;;;;3.33;73.63;100262.03;348505;107;1961948;-73
2021/01/03 04:16:06;;;;;;;20.44;11.01;;;;;;;3.34;73.62;100262.89;370591;107;1963972;-73
2021/01/03 04:17:12;;;;;;;24.53;10.92;;;;;;;3.34;73.72;100269.08;305321;107;2213907;-73
2021/01/03 04:18:17;;;;;;;31.10;10.88;;;;;;;3.35;73.79;100262.73;364737;107;1964961;-72
2021/01/03 04:19:23;;;;;;;22.79;10.57;;;;;;;3.41;73.59;100266.65;368620;107;1962006;-72
2021/01/03 04:20:30;;;;;;;24.31;12.44;;;;;;;3.44;73.40;100255.67;370136;107;1962022;-73
2021/01/03 04:21:36;;;;;;;26.70;10.02;;;;;;;3.42;73.45;100260.34;334852;107;2572034;-73
2021/01/03 04:22:42;;;;;;;21.30;9.36;;;;;;;3.37;73.53;100259.94;369943;107;1961933;-74
2021/01/03 04:23:47;;;;;;;23.63;9.79;;;;;;;3.39;73.38;100261.47;369118;107;1961929;-74
2021/01/03 04:24:52;;;;;;;21.44;8.14;;;;;;;3.38;73.29;100273.12;369718;107;1962013;-72
2021/01/03 04:25:59;;;;;;;22.11;9.62;;;;;;;3.39;73.21;100269.48;366160;107;1961984;-74
2021/01/03 04:27:08;;;;;;;22.89;8.80;;;;;;;3.36;73.16;100264.44;349340;108;2294079;-73
2021/01/03 04:28:14;;;;;;;20.64;8.03;;;;;;;3.33;73.38;100274.55;369472;107;1961935;-73
2021/01/03 04:29:20;;;;;;;18.07;8.61;;;;;;;3.30;73.48;100264.99;324172;107;2776948;-73
2021/01/03 04:30:29;;;;;;;20.81;8.04;;;;;;;3.29;73.52;100265.99;368282;108;1961919;-72
2021/01/03 04:31:34;;;;;;;17.50;9.15;;;;;;;3.25;73.53;100261.91;340351;108;2449048;-72
2021/01/03 04:32:40;;;;;;;20.58;8.19;;;;;;;3.27;73.52;100273.30;342631;107;1962024;-72
2021/01/03 04:33:46;;;;;;;19.21;8.25;;;;;;;3.30;73.44;100268.50;365435;108;1962020;-73
2021/01/03 04:34:51;;;;;;;22.94;7.96;;;;;;;3.30;73.29;100273.00;368403;107;1964956;-72
2021/01/03 04:35:56;;;;;;;16.56;7.87;;;;;;;3.26;73.39;100267.13;369188;107;1962005;-72
2021/01/03 04:37:03;;;;;;;19.30;7.88;;;;;;;3.24;73.46;100270.92;368832;107;1965999;-73
2021/01/03 04:38:08;;;;;;;22.22;7.66;;;;;;;3.25;73.37;100273.42;327007;107;2702041;-73
2021/01/03 04:39:14;;;;;;;15.66;7.73;;;;;;;3.26;73.38;100275.13;332872;107;1964938;-73
2021/01/03 04:40:23;;;;;;;19.83;8.97;;;;;;;3.24;73.53;100271.76;368670;107;1961918;-73
2021/01/03 04:41:39;;;;;;;17.06;7.84;;;;;;;3.22;73.70;100275.55;314615;107;2139917;-72
2021/01/03 04:42:45;;;;;;;18.38;8.50;;;;;;;3.24;73.70;100274.42;369746;107;1963009;-73
2021/01/03 04:43:51;;;;;;;17.46;8.43;;;;;;;3.26;73.55;100275.13;370501;107;1961969;-73
2021/01/03 04:45:12;;;;;;;21.08;8.90;;;;;;;3.30;73.50;100267.66;370559;107;1961971;-72
2021/01/03 04:46:21;;;;;;;19.08;7.74;;;;;;;3.27;73.50;100265.29;352017;107;1961985;-73
2021/01/03 04:47:33;;;;;;;23.06;9.16;;;;;;;3.29;73.40;100268.66;370591;107;1969985;-73
2021/01/03 04:48:38;;;;;;;;;;;;;;;3.31;73.36;100272.04;373157;107;1961005;-74
2021/01/03 04:49:47;;;;;;;18.36;9.07;;;;;;;3.29;73.40;100265.99;367337;108;1960993;-73
2021/01/03 04:51:24;;;;;;;21.79;10.01;;;;;;;3.28;73.60;100270.50;370911;107;1962045;-73
2021/01/03 04:52:37;;;;;;;21.69;9.18;;;;;;;3.30;73.71;100275.67;370122;107;1961927;-72
2021/01/03 04:54:15;;;;;;;18.84;8.84;;;;;;;3.33;73.61;100274.55;367574;107;1961939;-72
2021/01/03 04:55:24;;;;;;;17.08;8.34;;;;;;;3.32;73.73;100275.55;351791;107;2948929;-73
2021/01/03 04:56:44;;;;;;;15.03;7.61;;;;;;;3.36;73.60;100266.23;313283;107;2234958;-73
2021/01/03 04:58:14;;;;;;;16.07;7.28;;;;;;;3.39;73.25;100265.98;372672;107;1960978;-74
2021/01/03 04:59:30;;;;;;;16.16;7.12;;;;;;;3.30;73.37;100267.66;372155;107;1960962;-73
2021/01/03 05:00:42;;;;;;;17.19;7.06;;;;;;;3.24;73.72;100265.58;351895;107;1960918;-73
2021/01/03 05:01:58;;;;;;;17.46;6.56;;;;;;;3.24;73.75;100268.25;372532;109;1962003;-73
2021/01/03 05:03:20;;;;;;;16.34;7.55;;;;;;;3.28;73.55;100270.50;351928;112;1961930;-73
2021/01/03 05:04:47;;;;;;;19.38;7.96;;;;;;;3.27;73.54;100278.64;297528;111;2188107;-73
2021/01/03 05:05:53;;;;;;;17.46;7.46;;;;;;;3.24;73.61;100269.09;359014;112;1970278;-73
2021/01/03 05:07:01;;;;;;;18.09;7.48;;;;;;;3.26;73.49;100269.79;371198;109;1961915;-72
2021/01/03 05:08:32;;;;;;;17.29;8.88;;;;;;;3.26;73.51;100274.30;371147;109;1962027;-73